Time;durP1;ratioP1;P1;durP2;ratioP2;P2;SDS_P1;SDS_P2;PMS_P1;PMS_P2;Temp;Humidity;BMP_temperature;BMP_pressure;BME280_temperature;BME280_humidity;BME280_pressure;Samples;Min_cycle;Max_cycle;Signal;HPM_P1;HPM_P2
2023/02/14 00:09:44;;;;;;;14.23;7.00;;;4.80;56.70;;;;;;20671189;28;20053;-39
2023/02/14 00:19:45;;;;;;;12.35;6.63;;;4.70;64.40;;;;;;20657629;28;20053;-39
2023/02/14 00:29:46;;;;;;;9.13;5.00;;;4.70;59.90;;;;;;20669381;28;20269;-39
2023/02/14 00:39:47;;;;;;;21.83;7.13;;;4.50;59.50;;;;;;20679275;28;20050;-39
2023/02/14 00:49:49;;;;;;;10.65;6.28;;;4.40;74.20;;;;;;20682874;28;20439;-39
2023/02/14 00:59:50;;;;;;;8.00;5.40;;;4.40;68.90;;;;;;20675808;28;20041;-39
2023/02/14 01:09:51;;;;;;;9.43;5.30;;;4.30;63.40;;;;;;20671217;28;20042;-39
2023/02/14 01:19:52;;;;;;;11.48;6.47;;;4.20;65.80;;;;;;20662825;28;20033;-39
2023/02/14 01:29:53;;;;;;;15.57;6.72;;;4.20;69.10;;;;;;20670346;28;20056;-39
2023/02/14 01:39:55;;;;;;;17.80;8.00;;;4.10;70.10;;;;;;20667047;28;20057;-39
2023/02/14 01:50:08;;;;;;;9.52;5.05;;;4.00;73.90;;;;;;20675865;28;20389;-39
2023/02/14 02:10:31;;;;;;;13.57;7.72;;;3.90;81.80;;;;;;20599564;28;20424;-39
2023/02/14 02:21:05;;;;;;;11.77;5.40;;;3.80;81.20;;;;;;20624626;28;20528;-39
2023/02/14 02:31:12;;;;;;;;;;;3.80;83.20;;;;;;20688469;28;21413;-39
2023/02/14 02:41:34;;;;;;;11.15;5.90;;;3.70;83.20;;;;;;20686899;28;21741;-39
2023/02/14 03:02:27;;;;;;;13.10;6.77;;;3.60;92.50;;;;;;20685221;28;20413;-39
2023/02/14 03:12:41;;;;;;;13.27;6.68;;;3.50;90.50;;;;;;20679216;28;20754;-39
2023/02/14 03:22:52;;;;;;;13.52;6.90;;;3.40;96.20;;;;;;20665943;28;20042;-39
2023/02/14 03:33:04;;;;;;;9.38;5.63;;;3.40;97.40;;;;;;20674122;28;20490;-39
2023/02/14 03:43:10;;;;;;;11.20;6.65;;;3.40;96.40;;;;;;20684504;28;20049;-42
2023/02/14 03:53:15;;;;;;;13.75;6.93;;;3.30;90.50;;;;;;20675672;28;20538;-42
2023/02/14 04:03:19;;;;;;;18.85;8.50;;;3.30;92.40;;;;;;20683766;28;20042;-42
2023/02/14 04:13:20;;;;;;;11.73;5.88;;;3.30;96.60;;;;;;20687607;28;20033;-42
2023/02/14 04:23:21;;;;;;;12.88;7.60;;;3.20;96.90;;;;;;20670797;28;20058;-42
2023/02/14 04:33:22;;;;;;;10.55;5.93;;;3.10;99.30;;;;;;20670884;28;20029;-42
2023/02/14 04:43:23;;;;;;;11.32;7.38;;;3.10;99.90;;;;;;20676872;28;20417;-42
2023/02/14 04:53:24;;;;;;;11.32;6.35;;;3.10;99.90;;;;;;20681016;28;22249;-42
2023/02/14 05:03:25;;;;;;;12.68;6.75;;;3.40;99.90;;;;;;20671632;28;20045;-42
2023/02/14 05:13:27;;;;;;;11.73;6.63;;;3.60;99.90;;;;;;20683252;28;20045;-42
2023/02/14 05:23:28;;;;;;;9.68;6.32;;;3.60;99.90;;;;;;20672081;28;20053;-42
2023/02/14 05:33:29;;;;;;;11.30;5.57;;;3.50;99.90;;;;;;20667930;28;20041;-42
2023/02/14 05:43:31;;;;;;;9.35;5.43;;;3.30;99.90;;;;;;20686202;28;20517;-42
2023/02/14 05:53:33;;;;;;;12.02;6.32;;;3.40;99.90;;;;;;20666407;28;20305;-42
2023/02/14 06:03:53;;;;;;;9.73;5.88;;;3.40;99.90;;;;;;20639035;28;20675;-42
2023/02/14 06:13:54;;;;;;;11.63;6.80;;;3.50;99.90;;;;;;20664153;28;20037;-42
2023/02/14 06:23:55;;;;;;;8.68;6.57;;;3.60;99.90;;;;;;20661474;28;20049;-42
2023/02/14 06:33:56;;;;;;;18.00;7.55;;;3.60;99.90;;;;;;20673183;28;20044;-42
2023/02/14 06:43:57;;;;;;;24.83;10.20;;;3.40;99.90;;;;;;20677266;28;20054;-42
2023/02/14 06:53:59;;;;;;;16.20;7.55;;;3.50;99.90;;;;;;20661518;28;21872;-42
2023/02/14 07:04:00;;;;;;;17.25;8.00;;;3.50;99.90;;;;;;20688073;28;20045;-42
2023/02/14 07:14:01;;;;;;;21.42;8.93;;;3.50;99.90;;;;;;20708695;28;20549;-42
2023/02/14 07:24:02;;;;;;;20.85;10.65;;;3.50;99.90;;;;;;20686642;28;20034;-42
2023/02/14 07:34:03;;;;;;;25.48;11.80;;;3.60;99.90;;;;;;20682488;28;20049;-42
2023/02/14 07:44:04;;;;;;;15.18;10.15;;;3.60;99.90;;;;;;20699175;28;20037;-42
2023/02/14 07:54:06;;;;;;;24.02;10.88;;;3.80;99.90;;;;;;20689259;28;20053;-42
2023/02/14 08:04:07;;;;;;;19.13;11.52;;;3.90;99.90;;;;;;20680199;28;20463;-42
2023/02/14 08:14:09;;;;;;;18.70;9.23;;;4.10;99.90;;;;;;20666689;28;20037;-42
2023/02/14 08:24:10;;;;;;;18.92;10.50;;;4.20;99.90;;;;;;20709074;28;20038;-42
2023/02/14 08:34:11;;;;;;;19.30;12.80;;;4.40;99.90;;;;;;20720311;28;20041;-42
2023/02/14 08:44:12;;;;;;;20.95;12.40;;;4.70;99.90;;;;;;20711115;28;20046;-42
2023/02/14 08:54:14;;;;;;;21.20;12.55;;;5.10;99.90;;;;;;20710343;28;20060;-40
2023/02/14 09:04:15;;;;;;;25.60;13.48;;;5.50;99.90;;;;;;20694117;28;20053;-40
2023/02/14 09:14:17;;;;;;;22.75;13.70;;;5.90;99.90;;;;;;20710698;28;20607;-40
2023/02/14 09:24:18;;;;;;;22.65;11.98;;;6.30;99.90;;;;;;20705796;28;20062;-40
2023/02/14 09:34:19;;;;;;;18.55;10.25;;;6.80;99.90;;;;;;20710478;28;20041;-40
2023/02/14 09:44:56;;;;;;;19.98;11.35;;;7.20;99.90;;;;;;20702280;28;20049;-40
2023/02/14 09:55:01;;;;;;;20.50;10.00;;;7.60;89.10;;;;;;20694166;28;20034;-40
2023/02/14 10:05:12;;;;;;;16.17;9.20;;;7.80;67.00;;;;;;20703236;28;20167;-40
2023/02/14 10:15:19;;;;;;;19.60;8.95;;;8.10;57.40;;;;;;20723429;28;20037;-40
2023/02/14 10:25:29;;;;;;;17.30;8.10;;;8.40;49.40;;;;;;20738041;28;20038;-40
2023/02/14 10:35:41;;;;;;;13.35;7.65;;;8.80;27.20;;;;;;20736798;28;20398;-42
2023/02/14 10:45:42;;;;;;;14.35;7.68;;;9.30;24.20;;;;;;20732522;28;20044;-41
2023/02/14 10:56:17;;;;;;;15.88;8.25;;;9.70;16.00;;;;;;20696927;28;20045;-40
2023/02/14 11:06:18;;;;;;;16.77;8.23;;;10.20;10.20;;;;;;20656492;28;20053;-41
2023/02/14 11:16:30;;;;;;;15.43;7.82;;;10.70;6.00;;;;;;20712234;28;20397;-41
2023/02/14 11:26:33;;;;;;;15.98;8.68;;;11.30;2.40;;;;;;20695862;28;20030;-41
2023/02/14 11:36:41;;;;;;;16.15;8.32;;;11.60;1.30;;;;;;20700193;28;20046;-40
2023/02/14 11:46:42;;;;;;;15.23;8.00;;;12.30;1.00;;;;;;20677904;28;21562;-41
2023/02/14 11:56:53;;;;;;;9.43;6.90;;;12.80;1.00;;;;;;20680261;28;20060;-40
2023/02/14 12:06:55;;;;;;;11.00;5.93;;;13.20;1.00;;;;;;20672189;28;20057;-40
2023/02/14 12:16:59;;;;;;;12.85;7.28;;;13.50;1.00;;;;;;20688413;28;20516;-40
2023/02/14 12:27:33;;;;;;;16.88;7.85;;;13.80;1.00;;;;;;20665614;28;20498;-40
2023/02/14 12:38:02;;;;;;;25.17;9.30;;;14.20;1.00;;;;;;20675320;28;20029;-40
2023/02/14 12:48:28;;;;;;;11.75;5.70;;;15.00;1.00;;;;;;20671083;28;21440;-40
2023/02/14 12:58:43;;;;;;;10.50;5.50;;;15.00;1.00;;;;;;20681054;28;20045;-40
2023/02/14 13:09:00;;;;;;;11.40;7.05;;;16.30;1.00;;;;;;20690025;28;20045;-40
2023/02/14 13:19:23;;;;;;;13.82;7.97;;;16.50;1.00;;;;;;20684574;28;20052;-40
2023/02/14 13:29:35;;;;;;;15.05;7.55;;;16.30;1.00;;;;;;20683107;28;20046;-40
2023/02/14 13:39:42;;;;;;;16.20;5.88;;;16.00;1.00;;;;;;20679214;28;20053;-40
2023/02/14 13:49:52;;;;;;;10.07;5.53;;;16.30;1.00;;;;;;20667946;28;20038;-40
2023/02/14 14:00:18;;;;;;;10.63;7.03;;;15.40;1.00;;;;;;20667519;28;20104;-39
2023/02/14 14:10:42;;;;;;;11.18;6.82;;;14.60;1.00;;;;;;20662100;28;20050;-40
2023/02/14 14:20:46;;;;;;;13.52;6.30;;;14.90;1.00;;;;;;20668414;28;20041;-40
2023/02/14 14:30:48;;;;;;;13.52;6.93;;;14.30;1.00;;;;;;20667148;28;20557;-40
2023/02/14 14:40:49;;;;;;;11.90;6.97;;;14.60;1.00;;;;;;20662419;28;20045;-40
2023/02/14 14:50:51;;;;;;;8.45;4.57;;;15.70;1.00;;;;;;20677399;28;20379;-38
2023/02/14 15:00:52;;;;;;;6.95;5.03;;;16.50;1.00;;;;;;20669899;28;20523;-38
2023/02/14 15:21:42;;;;;;;17.65;6.97;;;16.00;1.00;;;;;;20683902;28;20036;-40
2023/02/14 15:31:44;;;;;;;16.35;7.60;;;15.10;1.00;;;;;;20697993;28;20149;-40
2023/02/14 15:41:45;;;;;;;12.85;6.22;;;14.30;1.00;;;;;;20687281;28;20061;-39
2023/02/14 15:51:48;;;;;;;11.85;6.50;;;13.60;1.00;;;;;;20677071;28;20042;-39
2023/02/14 16:02:24;;;;;;;7.97;5.30;;;13.20;1.00;;;;;;20676841;28;20061;-40
2023/02/14 16:12:33;;;;;;;10.75;6.85;;;12.90;1.00;;;;;;20676799;28;20046;-40
2023/02/14 16:22:34;;;;;;;16.48;7.50;;;12.50;1.00;;;;;;20673774;28;20095;-39
2023/02/14 16:32:36;;;;;;;11.00;6.00;;;12.20;1.00;;;;;;20676848;28;20430;-39
2023/02/14 16:42:39;;;;;;;8.52;5.60;;;11.80;1.00;;;;;;20684621;28;20091;-40
2023/02/14 16:52:42;;;;;;;16.42;4.97;;;11.40;1.00;;;;;;20690098;28;20049;-40
2023/02/14 17:02:43;;;;;;;13.13;8.27;;;11.00;1.00;;;;;;20679448;28;20045;-39
2023/02/14 17:12:47;;;;;;;12.55;7.70;;;10.50;1.00;;;;;;20668202;28;20037;-40
2023/02/14 17:22:48;;;;;;;10.75;5.93;;;10.10;1.00;;;;;;20672344;28;20029;-40
2023/02/14 17:32:49;;;;;;;13.35;7.13;;;9.80;1.00;;;;;;20662009;28;20068;-40
2023/02/14 17:42:50;;;;;;;13.00;7.10;;;9.60;1.00;;;;;;20669353;28;20213;-41
2023/02/14 17:52:54;;;;;;;12.48;7.07;;;9.30;2.00;;;;;;20662002;28;20033;-41
2023/02/14 18:02:55;;;;;;;20.67;8.35;;;9.00;2.70;;;;;;20661170;28;21412;-41
2023/02/14 18:12:56;;;;;;;18.38;8.13;;;8.90;3.70;;;;;;20666576;28;20034;-41
2023/02/14 18:22:57;;;;;;;31.80;8.77;;;8.70;7.10;;;;;;20654644;28;20037;-41
2023/02/14 18:32:58;;;;;;;14.68;10.43;;;8.50;5.20;;;;;;20645995;28;20034;-40
2023/02/14 18:42:59;;;;;;;23.35;10.40;;;8.20;9.30;;;;;;20673293;28;20038;-41
2023/02/14 18:53:00;;;;;;;14.30;7.65;;;8.10;10.30;;;;;;20644949;28;20549;-41
2023/02/14 19:03:01;;;;;;;18.70;9.82;;;7.90;12.80;;;;;;20666375;28;20067;-41
2023/02/14 19:13:02;;;;;;;15.23;7.90;;;7.50;14.80;;;;;;20660748;28;20182;-41
2023/02/14 19:23:03;;;;;;;17.27;9.20;;;7.50;15.80;;;;;;20670372;28;20362;-41
2023/02/14 19:33:05;;;;;;;12.40;7.22;;;7.20;16.20;;;;;;20679434;28;20041;-41
2023/02/14 19:43:06;;;;;;;18.40;10.25;;;7.20;16.70;;;;;;20663248;28;20052;-41
2023/02/14 19:53:07;;;;;;;11.95;7.75;;;6.90;20.30;;;;;;20665114;28;20500;-41
2023/02/14 20:03:09;;;;;;;18.63;10.20;;;6.80;18.00;;;;;;20656817;28;20121;-41
2023/02/14 20:13:10;;;;;;;21.05;9.32;;;6.60;17.40;;;;;;20645632;28;20038;-41
2023/02/14 20:23:11;;;;;;;21.17;9.55;;;6.60;18.60;;;;;;20651608;28;21445;-41
2023/02/14 20:33:12;;;;;;;18.42;9.38;;;6.40;17.40;;;;;;20660752;28;20041;-41
2023/02/14 20:43:13;;;;;;;16.10;8.40;;;6.30;17.70;;;;;;20673503;28;20043;-41
2023/02/14 20:53:14;;;;;;;22.55;12.18;;;6.10;18.80;;;;;;20673484;28;20054;-41
2023/02/14 21:03:15;;;;;;;34.90;13.73;;;6.00;21.40;;;;;;20676184;28;20038;-41
2023/02/14 21:13:16;;;;;;;21.85;11.10;;;5.90;24.10;;;;;;20701648;28;20037;-39
2023/02/14 21:23:18;;;;;;;22.92;13.23;;;5.80;21.50;;;;;;20696786;28;20505;-38
2023/02/14 21:33:19;;;;;;;20.35;12.05;;;5.70;27.00;;;;;;20702651;28;20135;-39
2023/02/14 21:43:20;;;;;;;24.88;12.80;;;5.60;24.30;;;;;;20677868;28;20041;-39
2023/02/14 21:53:21;;;;;;;16.70;10.32;;;5.40;31.60;;;;;;20678423;28;20041;-39
2023/02/14 22:03:23;;;;;;;22.30;10.93;;;5.40;29.10;;;;;;20679148;28;20033;-39
2023/02/14 22:13:24;;;;;;;15.70;9.98;;;5.30;27.20;;;;;;20654320;28;20033;-39
2023/02/14 22:23:25;;;;;;;21.95;10.98;;;5.10;27.70;;;;;;20669324;28;20076;-39
2023/02/14 22:33:26;;;;;;;16.88;11.00;;;5.00;30.00;;;;;;20678200;28;20034;-39
2023/02/14 22:43:27;;;;;;;19.20;10.40;;;4.90;35.00;;;;;;20669254;28;20095;-39
2023/02/14 22:53:28;;;;;;;19.38;10.23;;;4.70;40.90;;;;;;20665112;28;20348;-39
2023/02/14 23:03:29;;;;;;;12.15;7.82;;;4.60;46.30;;;;;;20667576;28;20030;-39
2023/02/14 23:24:10;;;;;;;16.98;9.52;;;4.50;43.90;;;;;;20579706;28;20049;-39
2023/02/14 23:34:34;;;;;;;15.00;7.90;;;4.50;40.10;;;;;;20638977;28;20091;-40
2023/02/14 23:55:27;;;;;;;17.85;9.02;;;4.20;42.10;;;;;;20684395;28;20428;-42
